Mason Valley, Nevada Weather observations

Data are for observation ending at time listed.
 Day   Time    Ave.   Ave.  Ave.  Vector   Max.   Stn.    Total    Solar   Ave.  
  of    of     Air    Rel.  Wind   Wind    Wind   Baro.  Precip.   Rad.    Soil  
Year   Day     Temp.  Hum.  Speed  Dir.    Gust   Pres.                    Temp. 
2014   (PST)    F      %     mph   deg.    mph     mb.     in.     W/m2     F   
------------------------------------------------------------------------------
 204    0:30   62.3    44    3.0   190      4.2   870.7    0.00       0    87.8
 204    0:40   63.1    44    1.8   248      5.0   870.8    0.00       0    87.5
 204    0:50   62.7    42    0.4   244      2.3   870.8    0.00       0    87.3
 204    1:00   61.0    43    0.7    74      3.3   870.8    0.00       0    87.1
 204    1:10   60.7    46    3.0   317      4.6   870.9    0.00       0    87.0
 204    1:20   62.1    44    3.4   289      5.9   870.9    0.00       0    86.6
 204    1:30   62.5    42    1.3   289      4.3   870.8    0.00       0    86.2
 204    1:40   59.7    43    0.1   344      1.3   870.8    0.00       0    85.9
 204    1:50   57.5    48    1.9    66      3.8   870.8    0.00       0    85.8
 204    2:00   57.8    49    0.9     6      4.0   870.7    0.00       0    85.7
 204    2:10   61.1    46    2.9   323      4.5   870.6    0.00       0    85.5
 204    2:20   63.7    42    2.3   355      3.5   870.6    0.00       0    85.0
 204    2:30   60.4    44    1.2    42      3.3   870.6    0.00       0    84.7
 204    2:40   59.6    47    2.6    10      3.0   870.6    0.00       0    84.6
 204    2:50   62.2    46    4.1   299      5.9   870.6    0.00       0    84.4
 204    3:00   64.0    42    3.5   310      5.9   870.6    0.00       0    84.0
 204    3:10   64.6    40    2.8   314      5.8   870.7    0.00       0    83.7
 204    3:20   59.2    45    3.1   140      3.8   870.7    0.00       0    83.5
 204    3:30   56.7    49    1.8   189      3.5   870.7    0.00       0    83.6
 204    3:40   56.4    50    0.0     0      0.0   870.8    0.00       0    83.8
 204    3:50   56.3    51    0.5   105      2.5   870.8    0.00       0    83.8
 204    4:00   55.7    52    2.3   219      4.3   870.8    0.00       0    83.7
 204    4:10   55.6    52    0.1   216      2.2   870.9    0.00       0    83.7
 204    4:20   56.0    51    1.0   222      3.0   870.9    0.00       0    83.5
 204    4:30   54.7    52    1.8   173      3.6   871.0    0.00       0    83.3
 204    4:40   55.7    50    0.3   215      2.4   871.1    0.00       3    83.1
 204    4:50   56.6    47    0.9    69      4.3   871.2    0.00       7    82.8
 204    5:00   56.6    52    0.0     0      0.0   871.2    0.00      10    82.5
 204    5:10   56.8    47    2.0   137      4.3   871.3    0.00      25    82.3
 204    5:20   56.1    48    4.2   155      4.8   871.3    0.00      43    82.0
 204    5:30   56.0    50    4.1   166      5.9   871.3    0.00      47    81.8
 204    5:40   56.1    53    4.1   145      4.9   871.4    0.00      63    81.5
 204    5:50   57.3    53    3.6   157      4.8   871.4    0.00      76    81.4
 204    6:00   58.9    49    2.1   174      3.4   871.3    0.00      94    81.1
 204    6:10   60.1    48    0.6   182      2.7   871.5    0.00     111    80.8
 204    6:20   62.1    45    2.9   163      4.5   871.5    0.00     163    80.5
 204    6:30   64.3    42    4.0   171      5.6   871.6    0.00     182    80.1
 204    6:40   65.9    40    3.6   169      5.4   871.7    0.00     187    79.6
 204    6:50   67.1    39    3.1   175      5.1   871.8    0.00     214    79.4
 204    7:00   68.6    37    3.0   176      4.5   872.0    0.00     247    79.2
 204    7:10   69.7    34    2.9   169      5.0   872.0    0.00     228    79.1
 204    7:20   69.4    34    3.0   165      4.7   872.0    0.00     164    79.0
 204    7:30   69.8    34    1.9   155      4.0   872.0    0.00     224    79.1
 204    7:40   71.1    32    0.7   130      2.3   872.0    0.00     345    79.1
 204    7:50   72.7    30    0.7    63      2.8   871.9    0.00     399    78.9
 204    8:00   72.5    30    1.9    60      3.6   871.9    0.00     358    78.7
 204    8:10   72.8    32    2.4    36      4.9   871.8    0.00     473    78.7
 204    8:20   73.5    31    3.3     4      5.7   871.7    0.00     687    78.6
 204    8:30   74.4    29    4.1    16      6.0   871.7    0.00     501    78.3
 204    8:40   73.0    30    4.6    27      6.7   871.6    0.00     371    78.4
 204    8:50   74.7    27    4.0    30      5.8   871.6    0.00     670    78.7
 204    9:00   76.5    26    4.2    45      7.0   871.6    0.00     740    78.7
 204    9:10   76.9    24    4.4    16      8.5   871.5    0.00     764    78.6
 204    9:20   77.9    22    4.6    33      7.6   871.5    0.00     765    78.5
 204    9:30   78.9    20    5.2   356      9.1   871.5    0.00     824    78.6
 204    9:40   79.4    18    4.8    32      9.1   871.4    0.00     847    78.8
 204    9:50   79.8    18    5.8     7     10.4   871.3    0.00     868    79.0
 204   10:00   80.5    17    6.1   352      9.4   871.2    0.00     845    79.2
 204   10:10   81.9    16    5.1   346      9.0   871.2    0.00     863    79.5
 204   10:20   82.5    16    4.3    22      8.6   871.1    0.00     926    79.6
 204   10:30   83.5    15    4.8    41      9.4   871.0    0.00     942    79.8
 204   10:40   84.3    14    3.9    48      8.6   871.0    0.00     943    79.9
 204   10:50   84.0    15    7.4    28     12.2   871.0    0.00     968    80.2
 204   11:00   84.3    15    7.9    44     14.0   870.8    0.00     974    80.5
 204   11:10   84.6    15    6.7    39     11.2   870.8    0.00     985    80.9
 204   11:20   85.4    14    6.0    60     13.6   870.6    0.00    1001    81.1
 204   11:30   85.4    14    7.5    35     12.1   870.5    0.00    1004    81.3
 204   11:40   85.8    14    5.0    30     12.1   870.3    0.00    1009    81.6
 204   11:50   86.0    14    7.1    19     13.8   870.2    0.00     999    81.8
 204   12:00   87.2    14    4.2   142      8.1   870.0    0.00    1021    82.1
 204   12:10   88.0    14    6.1    33     12.6   869.9    0.00    1015    82.3
 204   12:20   88.1    14    3.5    21     11.9   869.8    0.00    1011    82.6
 204   12:30   88.9    13    4.4    20     13.1   869.7    0.00    1010    82.8
 204   12:40   88.8    13    6.0    66     14.3   869.5    0.00    1005    83.1
 204   12:50   89.3    13    5.3    54     11.3   869.4    0.00    1003    83.5
 204   13:00   89.6    13    8.0    48     17.7   869.4    0.00     994    83.8
 204   13:10   89.9    13    5.7    64      9.8   869.2    0.00     967    84.2
 204   13:20   90.0    13    7.2    97     15.9   869.1    0.00     907    84.6
 204   13:30   90.6    12    4.8    90     12.0   868.9    0.00     881    85.0
 204   13:40   91.7    12    3.8   132      7.2   868.8    0.00     882    85.3
 204   13:50   91.9    12    5.4    51     10.3   868.7    0.00     859    85.6
 204   14:00   91.9    12    4.3    73      9.0   868.6    0.00     898    86.0
 204   14:10   91.8    12    4.4    97      9.0   868.5    0.00     843    86.4
 204   14:20   94.1    10    7.7   225     20.0   868.4    0.00     849    86.8
 204   14:30   92.6    10   11.7   260     20.6   868.3    0.00     844    87.2
 204   14:40   92.2    10   11.8   263     22.2   868.2    0.00     832    87.7
 204   14:50   92.3    10   13.1   259     22.1   868.2    0.00     815    88.2
 204   15:00   93.1    10   11.5   265     22.7   868.0    0.00     792    88.5
 204   15:10   92.6    10   12.5   257     22.2   867.9    0.00     760    88.8
 204   15:20   92.0    11   13.3   255     22.2   867.9    0.00     719    89.2
 204   15:30   92.2    11   13.3   266     19.8   867.8    0.00     703    89.5
 204   15:40   91.7    11   13.2   265     24.4   867.8    0.00     675    89.8
 204   15:50   91.6    11   13.3   277     25.1   867.8    0.00     646    90.1
 204   16:00   90.9    11   14.5   276     24.0   867.8    0.00     615    90.4
 204   16:10   90.8    12   14.9   279     25.9   867.7    0.00     584    90.8
 204   16:20   91.0    11   14.1   276     22.6   867.6    0.00     552    91.0
 204   16:30   90.1    12   15.2   272     25.5   867.5    0.00     521    91.2
 204   16:40   89.9    12   15.5   288     27.4   867.6    0.00     490    91.5
 204   16:50   89.3    12   16.1   276     29.1   867.5    0.00     462    91.6
 204   17:00   89.4    12   13.7   273     23.2   867.5    0.00     424    91.8
 204   17:10   89.0    12   14.1   266     25.9   867.5    0.00     375    91.9
 204   17:20   88.6    13   14.9   272     25.3   867.6    0.00     162    92.0
 204   17:30   88.0    15   14.2   269     22.8   867.7    0.00     313    92.0
 204   17:40   87.0    19    9.5   280     18.9   867.7    0.00     278    92.1
 204   17:50   86.0    20   14.2   291     23.1   867.8    0.00     245    92.2
 204   18:00   85.0    22   14.7   296     23.3   867.9    0.00     212    92.2
 204   18:10   84.4    22   13.6   302     22.6   868.0    0.00     179    92.4
 204   18:20   83.5    22   14.0   299     22.2   868.2    0.00     150    92.6
 204   18:30   82.6    23   12.1   296     23.1   868.3    0.00     121    92.7
 204   18:40   81.6    23   12.6   293     22.1   868.4    0.00      86    92.7
 204   18:50   80.8    24   12.8   291     22.2   868.5    0.00      52    92.7
 204   19:00   80.0    24   13.9   288     24.1   868.5    0.00      17    92.6
 204   19:10   79.5    24   11.2   291     22.0   868.5    0.00       6    92.6
 204   19:20   79.1    24   15.1   286     23.4   868.5    0.00       3    92.4
 204   19:30   78.4    24   14.7   285     27.3   868.4    0.00       1    92.2
 204   19:40   78.0    25   13.7   279     23.0   868.3    0.00       0    92.1
 204   19:50   77.6    25   14.2   279     24.5   868.4    0.00       0    91.9
 204   20:00   77.1    25   13.9   272     24.5   868.4    0.00       0    91.7
 204   20:10   76.8    25   13.1   273     22.7   868.5    0.00       0    91.6
 204   20:20   76.4    25   12.2   285     23.1   868.7    0.00       0    91.4
 204   20:30   75.7    26    6.6   346     14.3   869.2    0.00       0    91.3
 204   20:40   75.3    26    7.4   116     14.7   869.4    0.00       0    91.3
 204   20:50   75.7    26    8.2   261     15.5   869.3    0.00       0    91.1
 204   21:00   75.6    26    7.1    10     11.5   869.5    0.00       0    90.9
 204   21:10   73.6    28    8.4    55     11.8   869.6    0.00       0    90.8
 204   21:20   72.1    29    5.0   354      6.9   869.6    0.00       0    90.7
 204   21:30   72.9    28    5.5   316      8.7   869.5    0.00       0    90.7
 204   21:40   71.4    30    5.8    16      7.6   869.7    0.00       0    90.5
 204   21:50   68.7    33    6.3     7      8.0   869.8    0.00       0    90.4
 204   22:00   69.9    32    4.2   320      7.5   869.6    0.00       0    90.4
 204   22:10   70.0    31    1.5   118      4.7   869.8    0.00       0    90.2
 204   22:20   67.8    34    2.5   275      5.2   869.8    0.00       0    90.0
 204   22:30   65.7    35    3.5   162      4.7   869.9    0.00       0    89.9
 204   22:40   64.7    37    1.8   158      3.9   870.0    0.00       0    89.9
 204   22:50   63.9    38    4.2   200      6.7   870.1    0.00       0    89.7
 204   23:00   63.1    40    4.4   199      6.0   870.2    0.00       0    89.5
 204   23:10   63.1    40    4.3   200      5.9   870.3    0.00       0    89.3
 204   23:20   63.4    39    3.2   222      4.1   870.3    0.00       0    89.0
 204   23:30   63.8    38    4.2   224      5.2   870.3    0.00       0    88.8
 204   23:40   64.9    36    2.4   225      5.1   870.4    0.00       0    88.5
 204   23:50   64.4    37    0.7   215      2.0   870.4    0.00       0    88.2
 205    0:00   63.1    38    1.7   214      3.4   870.5    0.00       0    88.0
 205    0:10   62.0    39    2.0   217      3.9   870.5    0.00       0    87.9
 205    0:20   62.4    38    2.0   236      4.3   870.5    0.00       0    87.7

Return to Mason Valley, Nevada graphs page.


Western Regional Climate Center,wrcc@dri.edu